Terminal Aerodrome Forecast
Issued by NWS

Current Version | Previous Version | Text Only | Print | Product List | Glossary On
Versions: 1 2 3 4 5 6 7 8 9 10 11 12
000
FTUS42 KTAE 212320
TAFDHN
TAF
KDHN 212320Z 2200/2224 26009KT P6SM -SHRA SCT050 BKN250
      TEMPO 2200/2202 3SM TSRA BKN050CB
     FM220200 24004KT P6SM SCT050
     FM221800 25009KT P6SM VCTS BKN050CB=

USA.gov is the U.S. government's official web portal to all federal, state and local government web resources and services.